createdAt,value
2023-05-21T00:02:10.149Z,84.29
2023-05-21T00:04:40.677Z,84.78
2023-05-21T00:07:09.566Z,85.46
2023-05-21T00:09:39.840Z,85.43
2023-05-21T00:12:09.520Z,85.74
2023-05-21T00:14:37.858Z,86.44
2023-05-21T00:17:06.506Z,86.18
2023-05-21T00:19:34.853Z,86.96
2023-05-21T00:22:03.791Z,86.12
2023-05-21T00:24:32.107Z,86.16
2023-05-21T00:27:01.808Z,85.97
2023-05-21T00:29:30.178Z,86.42
2023-05-21T00:31:58.690Z,86.40
2023-05-21T00:34:27.329Z,86.56
2023-05-21T00:36:55.850Z,87.17
2023-05-21T00:39:24.538Z,87.00
2023-05-21T00:41:52.963Z,87.16
2023-05-21T00:44:23.744Z,86.94
2023-05-21T00:46:53.757Z,87.40
2023-05-21T00:49:24.546Z,87.92
2023-05-21T00:52:21.703Z,87.71
2023-05-21T00:54:51.229Z,86.59
2023-05-21T00:57:21.794Z,87.19
2023-05-21T00:59:53.365Z,88.11
2023-05-21T01:02:24.454Z,88.16
2023-05-21T01:04:55.895Z,88.33
2023-05-21T01:07:24.218Z,88.32
2023-05-21T01:09:54.225Z,88.28
2023-05-21T01:12:24.711Z,87.86
2023-05-21T01:14:54.967Z,89.03
2023-05-21T01:17:24.469Z,88.75
2023-05-21T01:19:54.823Z,87.90
2023-05-21T01:22:25.104Z,88.20
2023-05-21T01:24:56.204Z,87.92
2023-05-21T01:27:24.484Z,88.22
2023-05-21T01:29:52.808Z,87.38
2023-05-21T01:32:27.578Z,87.69
2023-05-21T01:35:03.314Z,87.99
2023-05-21T01:37:36.379Z,87.93
2023-05-21T01:40:12.041Z,88.55
2023-05-21T01:42:44.393Z,88.20
2023-05-21T01:45:15.102Z,88.34
2023-05-21T01:47:47.987Z,88.09
2023-05-21T01:50:16.557Z,88.62
2023-05-21T01:52:51.042Z,88.96
2023-05-21T01:55:24.722Z,89.28
2023-05-21T01:57:54.014Z,88.74
2023-05-21T02:00:23.264Z,89.46
2023-05-21T02:02:52.005Z,89.85
2023-05-21T02:05:20.521Z,89.98
2023-05-21T02:07:49.831Z,89.55
2023-05-21T02:10:18.078Z,90.27
2023-05-21T02:12:47.773Z,90.30
2023-05-21T02:15:18.139Z,90.13
2023-05-21T02:17:46.803Z,90.35
2023-05-21T02:20:15.699Z,90.71
2023-05-21T02:22:45.575Z,90.20
2023-05-21T02:25:16.057Z,90.37
2023-05-21T02:27:46.629Z,89.64
2023-05-21T02:30:16.927Z,89.04
2023-05-21T02:32:45.593Z,90.00
2023-05-21T02:35:14.542Z,90.21
2023-05-21T02:37:44.200Z,91.08
2023-05-21T02:40:13.693Z,91.81
2023-05-21T02:42:43.115Z,90.97
2023-05-21T02:45:17.480Z,91.39
2023-05-21T02:47:45.974Z,91.95
2023-05-21T02:50:15.973Z,92.89
2023-05-21T02:52:49.726Z,92.64
2023-05-21T02:55:18.147Z,93.44
2023-05-21T02:57:46.484Z,93.85
2023-05-21T03:00:16.136Z,93.44
2023-05-21T03:02:46.588Z,94.18
2023-05-21T03:05:15.220Z,92.71
2023-05-21T03:07:43.684Z,93.15
2023-05-21T03:10:13.451Z,93.39
2023-05-21T03:12:42.277Z,93.57
2023-05-21T03:15:14.885Z,93.15
2023-05-21T03:17:44.594Z,93.82
2023-05-21T03:20:17.175Z,93.89
2023-05-21T03:22:46.497Z,93.82
2023-05-21T03:25:14.941Z,93.63
2023-05-21T03:27:43.449Z,94.17
2023-05-21T03:30:26.747Z,95.02
2023-05-21T03:33:24.737Z,95.20
2023-05-21T03:35:54.550Z,94.94
2023-05-21T03:38:23.132Z,94.58
2023-05-21T03:40:51.656Z,94.50
2023-05-21T03:43:20.549Z,95.31
2023-05-21T03:45:49.291Z,95.09
2023-05-21T03:48:36.226Z,95.33
2023-05-21T03:51:06.317Z,95.33
2023-05-21T03:53:35.559Z,95.43
2023-05-21T03:56:03.876Z,95.16
2023-05-21T03:58:33.417Z,95.38
2023-05-21T04:01:02.940Z,95.42
2023-05-21T04:03:36.299Z,95.88
2023-05-21T04:06:10.375Z,96.02
2023-05-21T04:08:40.334Z,95.51
2023-05-21T04:11:08.702Z,94.48
2023-05-21T04:13:37.501Z,94.78
2023-05-21T04:16:09.132Z,94.77
2023-05-21T04:18:37.836Z,95.51
2023-05-21T04:21:08.044Z,94.52
2023-05-21T04:23:36.810Z,95.32
2023-05-21T04:26:09.786Z,94.59
2023-05-21T04:28:42.267Z,94.53
2023-05-21T04:31:13.067Z,94.55
2023-05-21T04:33:42.270Z,93.97
2023-05-21T04:36:12.495Z,94.03
2023-05-21T04:38:42.059Z,94.79
2023-05-21T04:41:11.056Z,94.22
2023-05-21T04:43:44.046Z,93.20
2023-05-21T04:46:14.880Z,94.25
2023-05-21T04:48:43.196Z,94.10
2023-05-21T04:51:13.340Z,94.18
2023-05-21T04:53:42.616Z,94.53
2023-05-21T04:56:10.934Z,94.75
2023-05-21T04:58:40.579Z,95.39
2023-05-21T05:01:09.049Z,94.96
2023-05-21T05:03:37.526Z,94.06
2023-05-21T05:06:07.798Z,94.23
2023-05-21T05:08:37.742Z,93.62
2023-05-21T05:11:06.815Z,93.95
2023-05-21T05:13:35.345Z,93.92
2023-05-21T05:16:03.639Z,94.21
2023-05-21T05:18:32.163Z,93.56
2023-05-21T05:21:01.688Z,93.64
2023-05-21T05:23:30.113Z,94.63
2023-05-21T05:25:59.932Z,94.82
2023-05-21T05:28:29.051Z,94.15
2023-05-21T05:30:57.454Z,94.85
2023-05-21T05:33:26.960Z,94.56
2023-05-21T05:35:55.385Z,94.27
2023-05-21T05:38:23.886Z,94.25
2023-05-21T05:40:52.214Z,93.95
2023-05-21T05:43:23.158Z,93.93
2023-05-21T05:45:51.746Z,93.29
2023-05-21T05:48:20.801Z,94.38
2023-05-21T05:50:49.508Z,93.08
2023-05-21T05:53:18.056Z,92.32
2023-05-21T05:55:46.951Z,93.43
2023-05-21T05:58:15.640Z,93.05
2023-05-21T06:01:22.764Z,92.62
2023-05-21T06:03:51.467Z,91.85
2023-05-21T06:06:20.759Z,91.42
2023-05-21T06:08:49.300Z,91.28
2023-05-21T06:11:19.286Z,91.62
2023-05-21T06:13:47.670Z,91.50
2023-05-21T06:16:18.756Z,91.50
2023-05-21T06:18:48.587Z,90.80
2023-05-21T06:21:16.945Z,90.69
2023-05-21T06:23:46.458Z,91.04
2023-05-21T06:26:14.812Z,92.08
2023-05-21T06:28:43.218Z,91.07
2023-05-21T06:31:13.749Z,91.75
2023-05-21T06:33:43.872Z,91.75
2023-05-21T06:36:13.874Z,91.64
2023-05-21T06:38:42.735Z,92.10
2023-05-21T06:41:11.105Z,90.34
2023-05-21T06:43:55.210Z,90.76
2023-05-21T06:46:56.086Z,89.46
2023-05-21T06:49:24.586Z,90.00
2023-05-21T06:51:54.397Z,90.64
2023-05-21T06:54:24.014Z,90.33
2023-05-21T06:56:53.319Z,90.69
2023-05-21T06:59:21.725Z,90.01
2023-05-21T07:01:50.182Z,91.76
2023-05-21T07:04:19.235Z,90.01
2023-05-21T07:06:48.577Z,90.29
2023-05-21T07:09:19.037Z,90.13
2023-05-21T07:11:48.505Z,90.48
2023-05-21T07:14:18.421Z,90.49
2023-05-21T07:16:48.527Z,89.12
2023-05-21T07:19:16.937Z,89.97
2023-05-21T07:21:46.030Z,89.31
2023-05-21T07:24:14.519Z,90.29
2023-05-21T07:26:45.527Z,88.04
2023-05-21T07:29:14.392Z,88.22
2023-05-21T07:31:42.713Z,87.58
2023-05-21T07:34:12.088Z,87.71
2023-05-21T07:36:42.539Z,87.96
2023-05-21T07:39:11.032Z,87.22
2023-05-21T07:41:40.123Z,87.08
2023-05-21T07:44:11.450Z,87.41
2023-05-21T07:46:43.167Z,86.63
2023-05-21T07:49:16.845Z,86.61
2023-05-21T07:51:46.812Z,86.66
2023-05-21T07:54:16.672Z,86.29
2023-05-21T07:56:45.143Z,86.77
2023-05-21T07:59:26.004Z,85.73
2023-05-21T08:01:54.646Z,85.28
2023-05-21T08:04:23.463Z,84.63
2023-05-21T08:06:53.817Z,85.05
2023-05-21T08:09:22.126Z,85.28
2023-05-21T08:11:50.670Z,85.97
2023-05-21T08:14:19.028Z,85.02
2023-05-21T08:16:49.157Z,84.30
2023-05-21T08:19:17.651Z,83.48
2023-05-21T08:21:46.211Z,84.27
2023-05-21T08:24:14.588Z,83.25
2023-05-21T08:26:44.710Z,82.99
2023-05-21T08:29:13.572Z,83.46
2023-05-21T08:31:42.046Z,83.22
2023-05-21T08:34:12.139Z,81.66
2023-05-21T08:36:48.119Z,82.03
2023-05-21T08:39:41.228Z,79.60
2023-05-21T08:42:35.184Z,79.65
2023-05-21T08:45:07.841Z,80.50
2023-05-21T08:47:37.476Z,80.65
2023-05-21T08:50:11.417Z,79.39
2023-05-21T08:52:40.041Z,80.77
2023-05-21T08:55:09.701Z,80.89
2023-05-21T08:57:44.167Z,79.84
2023-05-21T09:00:15.743Z,79.53
2023-05-21T09:02:46.543Z,79.99
2023-05-21T09:05:18.101Z,81.31
2023-05-21T09:07:52.760Z,79.86
2023-05-21T09:10:37.357Z,79.59
2023-05-21T09:13:08.093Z,78.39
2023-05-21T09:15:37.587Z,77.70
2023-05-21T09:18:07.107Z,77.17
2023-05-21T09:20:46.548Z,79.22
2023-05-21T09:23:18.935Z,78.15
2023-05-21T09:25:52.064Z,78.20
2023-05-21T09:28:29.008Z,77.97
2023-05-21T09:30:57.422Z,77.63
2023-05-21T09:33:26.234Z,78.60
2023-05-21T09:35:56.596Z,76.63
2023-05-21T09:38:27.122Z,75.73
2023-05-21T09:40:56.957Z,75.58
2023-05-21T09:43:29.403Z,76.87
2023-05-21T09:46:01.294Z,76.07
2023-05-21T09:48:37.361Z,74.96
2023-05-21T09:51:14.840Z,76.41
2023-05-21T09:53:50.799Z,75.47
2023-05-21T09:56:23.506Z,75.01
2023-05-21T09:58:55.781Z,74.50
2023-05-21T10:01:25.646Z,73.36
2023-05-21T10:03:58.014Z,71.94
2023-05-21T10:06:33.781Z,71.38
2023-05-21T10:09:07.388Z,69.47
2023-05-21T10:11:37.782Z,68.74
2023-05-21T10:14:08.246Z,68.77
2023-05-21T10:16:37.871Z,69.05
2023-05-21T10:19:11.076Z,68.26
2023-05-21T10:21:46.315Z,67.61
2023-05-21T10:24:19.335Z,69.21
2023-05-21T10:26:49.557Z,70.94
2023-05-21T10:29:23.678Z,68.40
2023-05-21T10:31:54.025Z,68.68
2023-05-21T10:34:24.612Z,68.58
2023-05-21T10:36:57.262Z,70.09
2023-05-21T10:39:26.800Z,69.37
2023-05-21T10:42:03.541Z,68.86
2023-05-21T10:44:43.809Z,70.69
2023-05-21T10:47:50.205Z,69.65
2023-05-21T10:51:08.282Z,69.57
2023-05-21T10:53:54.023Z,69.52
2023-05-21T10:56:26.195Z,68.27
2023-05-21T10:59:22.398Z,69.60
2023-05-21T11:01:53.150Z,67.82
2023-05-21T11:04:27.326Z,68.28
2023-05-21T11:06:56.372Z,69.65
2023-05-21T11:09:27.970Z,69.69
2023-05-21T11:12:04.709Z,67.51
2023-05-21T11:14:36.339Z,67.26
2023-05-21T11:17:06.044Z,67.93
2023-05-21T11:19:39.517Z,68.21
2023-05-21T11:22:21.975Z,67.59
2023-05-21T11:24:52.800Z,66.61
2023-05-21T11:27:35.661Z,65.66
2023-05-21T11:30:08.824Z,66.38
2023-05-21T11:32:41.010Z,67.18
2023-05-21T11:35:10.137Z,66.99
2023-05-21T11:37:41.876Z,65.73
2023-05-21T11:40:36.905Z,66.11
2023-05-21T11:43:05.555Z,66.28
2023-05-21T11:45:34.463Z,64.24
2023-05-21T11:48:03.917Z,64.30
2023-05-21T11:50:34.163Z,64.17
2023-05-21T11:53:03.460Z,63.94
2023-05-21T11:55:33.211Z,64.62
2023-05-21T11:58:03.807Z,63.23
2023-05-21T12:00:32.380Z,64.64
2023-05-21T12:03:02.067Z,65.92
2023-05-21T12:05:30.653Z,64.83
2023-05-21T12:07:59.287Z,65.46
2023-05-21T12:10:27.819Z,63.93
2023-05-21T12:13:08.193Z,65.25
2023-05-21T12:15:47.619Z,65.66
2023-05-21T12:18:36.149Z,64.86
2023-05-21T12:21:07.024Z,66.19
2023-05-21T12:23:39.978Z,63.71
2023-05-21T12:26:12.268Z,63.12
2023-05-21T12:28:44.926Z,63.90
2023-05-21T12:31:19.204Z,63.97
2023-05-21T12:33:53.914Z,63.90
2023-05-21T12:36:29.106Z,65.50
2023-05-21T12:38:58.736Z,63.86
2023-05-21T12:41:36.930Z,60.79
2023-05-21T12:44:18.824Z,61.63
2023-05-21T12:46:47.916Z,62.28
2023-05-21T12:49:35.038Z,60.85
2023-05-21T12:52:05.153Z,61.11
2023-05-21T12:54:36.404Z,60.64
2023-05-21T12:57:12.675Z,61.64
2023-05-21T12:59:53.466Z,62.00
2023-05-21T13:02:23.115Z,62.17
2023-05-21T13:04:56.569Z,61.35
2023-05-21T13:07:26.295Z,62.26
2023-05-21T13:09:55.593Z,63.11
2023-05-21T13:12:26.086Z,63.22
2023-05-21T13:14:57.359Z,63.65
2023-05-21T13:17:27.579Z,62.71
2023-05-21T13:20:09.933Z,62.63
2023-05-21T13:22:42.488Z,62.08
2023-05-21T13:25:12.370Z,63.51
2023-05-21T13:27:40.961Z,62.11
2023-05-21T13:30:12.325Z,64.36
2023-05-21T13:32:43.997Z,62.37
2023-05-21T13:35:16.702Z,63.18
2023-05-21T13:37:46.078Z,62.31
2023-05-21T13:40:16.856Z,63.18
2023-05-21T13:42:47.648Z,61.51
2023-05-21T13:45:18.841Z,60.22
2023-05-21T13:47:48.192Z,60.44
2023-05-21T13:50:17.462Z,62.09
2023-05-21T13:52:46.284Z,60.02
2023-05-21T13:55:16.117Z,61.77
2023-05-21T13:57:45.014Z,60.30
2023-05-21T14:00:16.159Z,60.14
2023-05-21T14:02:46.171Z,61.07
2023-05-21T14:05:14.620Z,61.73
2023-05-21T14:07:43.244Z,60.61
2023-05-21T14:10:12.517Z,62.31
2023-05-21T14:12:42.238Z,60.21
2023-05-21T14:15:12.074Z,60.58
2023-05-21T14:17:42.646Z,60.00
2023-05-21T14:20:13.701Z,58.96
2023-05-21T14:22:42.434Z,59.69
2023-05-21T14:25:11.271Z,59.21
2023-05-21T14:27:39.894Z,58.75
2023-05-21T14:30:09.616Z,57.92
2023-05-21T14:32:38.715Z,58.62
2023-05-21T14:35:08.037Z,58.85
2023-05-21T14:37:37.971Z,59.34
2023-05-21T14:40:08.172Z,59.55
2023-05-21T14:42:36.908Z,58.79
2023-05-21T14:45:18.102Z,58.33
2023-05-21T14:47:52.369Z,58.24
2023-05-21T14:50:21.731Z,58.43
2023-05-21T14:52:51.592Z,59.10
2023-05-21T14:55:22.532Z,58.91
2023-05-21T14:57:51.354Z,58.90
2023-05-21T15:00:19.956Z,58.77
2023-05-21T15:02:51.652Z,60.33
2023-05-21T15:05:20.306Z,60.46
2023-05-21T15:07:49.011Z,60.24
2023-05-21T15:10:19.764Z,59.13
2023-05-21T15:12:49.643Z,59.31
2023-05-21T15:15:20.880Z,60.25
2023-05-21T15:17:50.740Z,58.04
2023-05-21T15:20:19.763Z,58.46
2023-05-21T15:22:49.134Z,58.56
2023-05-21T15:25:20.267Z,56.96
2023-05-21T15:27:50.395Z,56.24
2023-05-21T15:30:20.860Z,56.31
2023-05-21T15:32:54.768Z,56.02
2023-05-21T15:35:23.361Z,56.03
2023-05-21T15:37:52.194Z,56.02
2023-05-21T15:40:25.473Z,54.81
2023-05-21T15:42:55.781Z,55.32
2023-05-21T15:45:25.541Z,57.13
2023-05-21T15:47:54.398Z,56.19
2023-05-21T15:50:23.072Z,55.61
2023-05-21T15:52:54.662Z,55.90
2023-05-21T15:55:25.314Z,56.58
2023-05-21T15:57:54.007Z,56.98
2023-05-21T16:00:22.836Z,58.16
2023-05-21T16:02:51.831Z,57.17
2023-05-21T16:05:20.625Z,58.05
2023-05-21T16:07:54.507Z,56.55
2023-05-21T16:10:25.145Z,56.75
2023-05-21T16:12:54.024Z,57.45
2023-05-21T16:15:22.786Z,56.28
2023-05-21T16:17:51.445Z,56.39
2023-05-21T16:20:22.352Z,56.97
2023-05-21T16:22:51.239Z,56.59
2023-05-21T16:25:19.940Z,57.41
2023-05-21T16:27:53.007Z,57.06
2023-05-21T16:30:21.698Z,57.36
2023-05-21T16:32:51.135Z,56.79
2023-05-21T16:35:20.040Z,56.48
2023-05-21T16:37:48.477Z,56.71
2023-05-21T16:40:18.849Z,56.30
2023-05-21T16:42:47.574Z,55.95
2023-05-21T16:45:20.814Z,56.35
2023-05-21T16:47:49.827Z,56.03
2023-05-21T16:50:20.387Z,55.77
2023-05-21T16:52:49.995Z,56.42
2023-05-21T16:55:18.696Z,56.54
2023-05-21T16:57:47.340Z,56.16
2023-05-21T17:00:19.760Z,56.39
2023-05-21T17:02:49.357Z,56.13
2023-05-21T17:05:18.581Z,55.26
2023-05-21T17:07:49.119Z,54.91
2023-05-21T17:10:18.108Z,55.35
2023-05-21T17:12:47.556Z,55.56
2023-05-21T17:18:35.971Z,56.21
2023-05-21T17:21:22.862Z,55.89
2023-05-21T17:24:38.191Z,56.86
2023-05-21T17:27:13.450Z,55.76
2023-05-21T17:29:52.905Z,56.72
2023-05-21T17:41:44.603Z,53.22
2023-05-21T17:52:27.346Z,52.52
2023-05-21T17:54:58.299Z,53.75
2023-05-21T17:57:32.115Z,56.34
2023-05-21T18:00:05.780Z,56.41
2023-05-21T18:06:13.251Z,58.96
2023-05-21T18:09:16.651Z,58.51
2023-05-21T18:11:47.538Z,59.49
2023-05-21T18:14:20.729Z,59.66
2023-05-21T18:16:55.905Z,59.61
2023-05-21T18:19:30.798Z,60.01
2023-05-21T18:22:01.135Z,60.76
2023-05-21T18:24:30.682Z,60.93
2023-05-21T18:27:20.125Z,60.69
2023-05-21T18:32:59.471Z,60.88
2023-05-21T18:42:41.738Z,60.31
2023-05-21T18:45:31.359Z,61.43
2023-05-21T18:48:31.401Z,62.64
2023-05-21T18:51:01.772Z,62.64
2023-05-21T18:53:31.617Z,63.39
2023-05-21T18:56:01.405Z,64.23
2023-05-21T19:02:03.364Z,65.09
2023-05-21T19:07:39.305Z,65.52
2023-05-21T19:37:02.785Z,69.93
2023-05-21T19:39:39.302Z,70.06
2023-05-21T19:42:21.612Z,70.46
2023-05-21T19:47:50.608Z,71.56
2023-05-21T19:50:19.852Z,71.51
2023-05-21T19:52:53.728Z,71.92
2023-05-21T19:55:22.944Z,71.52
2023-05-21T19:57:52.188Z,71.99
2023-05-21T20:00:21.551Z,71.81
2023-05-21T20:02:52.310Z,71.85
2023-05-21T20:05:21.976Z,71.87
2023-05-21T20:07:52.559Z,72.24
2023-05-21T20:21:40.593Z,71.29
2023-05-21T20:24:11.490Z,71.21
2023-05-21T20:26:45.042Z,70.83
2023-05-21T20:29:13.814Z,71.14
2023-05-21T20:34:54.678Z,71.53
2023-05-21T20:37:32.585Z,70.98
2023-05-21T20:40:02.828Z,70.54
2023-05-21T20:42:34.936Z,70.07
2023-05-21T20:45:05.078Z,68.92
2023-05-21T20:47:34.944Z,68.59
2023-05-21T20:50:04.317Z,69.01
2023-05-21T20:52:33.118Z,68.82
2023-05-21T20:55:04.540Z,67.92
2023-05-21T20:57:33.154Z,67.78
2023-05-21T21:00:01.477Z,68.23
2023-05-21T21:02:31.231Z,68.17
2023-05-21T21:05:00.060Z,67.61
2023-05-21T21:07:30.114Z,68.37
2023-05-21T21:09:58.862Z,67.31
2023-05-21T21:12:28.688Z,67.05
2023-05-21T21:14:57.163Z,66.76
2023-05-21T21:17:25.414Z,68.74
2023-05-21T21:19:53.682Z,69.91
2023-05-21T21:22:22.120Z,70.75
2023-05-21T21:24:50.386Z,71.38
2023-05-21T21:27:18.818Z,72.72
2023-05-21T21:29:48.450Z,73.34
2023-05-21T21:32:17.011Z,74.94
2023-05-21T21:34:45.564Z,76.67
2023-05-21T21:37:13.971Z,77.28
2023-05-21T21:39:42.380Z,77.73
2023-05-21T21:42:10.825Z,79.09
2023-05-21T21:44:39.482Z,78.94
2023-05-21T21:47:09.249Z,79.68
2023-05-21T21:49:37.685Z,79.74
2023-05-21T21:52:07.150Z,80.39
2023-05-21T21:54:35.498Z,79.66
2023-05-21T21:57:03.763Z,79.61
2023-05-21T21:59:32.253Z,79.53
2023-05-21T22:02:00.870Z,78.86
2023-05-21T22:04:30.609Z,79.51
2023-05-21T22:06:59.089Z,79.65
2023-05-21T22:09:27.432Z,79.44
2023-05-21T22:11:55.860Z,79.72
2023-05-21T22:14:24.127Z,80.71
2023-05-21T22:16:53.361Z,80.95
2023-05-21T22:19:22.740Z,80.75
2023-05-21T22:21:54.088Z,80.99
2023-05-21T22:24:32.153Z,80.43
2023-05-21T22:27:01.610Z,81.27
2023-05-21T22:29:29.915Z,81.51
2023-05-21T22:31:58.411Z,82.71
2023-05-21T22:34:26.643Z,82.63
2023-05-21T22:36:56.569Z,82.60
2023-05-21T22:39:24.889Z,82.29
2023-05-21T22:41:53.133Z,82.43
2023-05-21T22:44:21.336Z,83.19
2023-05-21T22:46:49.647Z,82.64
2023-05-21T22:49:18.045Z,83.74
2023-05-21T22:51:46.432Z,83.74
2023-05-21T22:54:16.189Z,83.82
2023-05-21T22:56:45.021Z,83.59
2023-05-21T22:59:13.311Z,83.25
2023-05-21T23:01:41.856Z,83.67
2023-05-21T23:04:10.214Z,84.27
2023-05-21T23:06:38.477Z,84.63
2023-05-21T23:09:07.031Z,85.16
2023-05-21T23:11:37.089Z,85.66
2023-05-21T23:14:05.384Z,85.77
2023-05-21T23:16:33.818Z,86.29
2023-05-21T23:19:02.803Z,86.24
2023-05-21T23:21:31.481Z,86.74
2023-05-21T23:23:59.745Z,86.87
2023-05-21T23:26:28.617Z,86.92
2023-05-21T23:28:58.245Z,85.88
2023-05-21T23:31:26.920Z,85.85
2023-05-21T23:33:55.480Z,85.75
2023-05-21T23:36:23.884Z,87.16
2023-05-21T23:38:52.159Z,88.30
2023-05-21T23:41:21.030Z,88.82
2023-05-21T23:43:49.299Z,89.54
2023-05-21T23:46:19.042Z,89.36
2023-05-21T23:48:47.445Z,89.18
2023-05-21T23:51:16.241Z,88.64
2023-05-21T23:54:10.398Z,89.89
2023-05-21T23:56:38.661Z,89.87
2023-05-21T23:59:06.911Z,89.27
